sensor_id;sensor_type;location;lat;lon;timestamp;temperature;humidity
7738;DHT22;29398;45.328;5.558;2024-02-23T00:00:59;9.50;99.90
7738;DHT22;29398;45.328;5.558;2024-02-23T00:02:00;9.60;99.90
7738;DHT22;29398;45.328;5.558;2024-02-23T00:03:03;9.60;99.90
7738;DHT22;29398;45.328;5.558;2024-02-23T00:04:04;9.60;99.90
7738;DHT22;29398;45.328;5.558;2024-02-23T00:05:08;9.60;99.90
7738;DHT22;29398;45.328;5.558;2024-02-23T00:06:09;9.60;99.90
7738;DHT22;29398;45.328;5.558;2024-02-23T00:07:11;9.60;99.90
7738;DHT22;29398;45.328;5.558;2024-02-23T00:08:12;9.70;99.90
7738;DHT22;29398;45.328;5.558;2024-02-23T00:09:15;9.70;99.90
7738;DHT22;29398;45.328;5.558;2024-02-23T00:10:17;9.60;99.90
7738;DHT22;29398;45.328;5.558;2024-02-23T00:11:19;9.60;99.90
7738;DHT22;29398;45.328;5.558;2024-02-23T00:12:20;9.60;99.90
7738;DHT22;29398;45.328;5.558;2024-02-23T00:13:22;9.60;99.90
7738;DHT22;29398;45.328;5.558;2024-02-23T00:14:23;9.60;99.90
7738;DHT22;29398;45.328;5.558;2024-02-23T00:15:25;9.60;99.90
7738;DHT22;29398;45.328;5.558;2024-02-23T00:16:26;9.60;99.90
7738;DHT22;29398;45.328;5.558;2024-02-23T00:17:28;9.60;99.90
7738;DHT22;29398;45.328;5.558;2024-02-23T00:18:29;9.60;99.90
7738;DHT22;29398;45.328;5.558;2024-02-23T00:19:31;9.60;99.90
7738;DHT22;29398;45.328;5.558;2024-02-23T00:20:32;9.70;99.90
7738;DHT22;29398;45.328;5.558;2024-02-23T00:21:35;9.60;99.90
7738;DHT22;29398;45.328;5.558;2024-02-23T00:22:36;9.60;99.90
7738;DHT22;29398;45.328;5.558;2024-02-23T00:23:38;9.60;99.90
7738;DHT22;29398;45.328;5.558;2024-02-23T00:24:41;9.60;99.90
7738;DHT22;29398;45.328;5.558;2024-02-23T00:25:43;10.60;99.90
7738;DHT22;29398;45.328;5.558;2024-02-23T00:26:44;9.60;99.90
7738;DHT22;29398;45.328;5.558;2024-02-23T00:27:45;9.60;99.90
7738;DHT22;29398;45.328;5.558;2024-02-23T00:28:47;9.50;99.90
7738;DHT22;29398;45.328;5.558;2024-02-23T00:29:48;9.50;99.90
7738;DHT22;29398;45.328;5.558;2024-02-23T00:30:50;9.50;99.90
7738;DHT22;29398;45.328;5.558;2024-02-23T00:31:52;9.50;99.90
7738;DHT22;29398;45.328;5.558;2024-02-23T00:32:54;9.50;99.90
7738;DHT22;29398;45.328;5.558;2024-02-23T00:33:55;9.50;99.90
7738;DHT22;29398;45.328;5.558;2024-02-23T00:34:57;9.40;99.90
7738;DHT22;29398;45.328;5.558;2024-02-23T00:35:58;9.40;99.90
7738;DHT22;29398;45.328;5.558;2024-02-23T00:37:00;9.40;99.90
7738;DHT22;29398;45.328;5.558;2024-02-23T00:38:01;9.40;99.90
7738;DHT22;29398;45.328;5.558;2024-02-23T00:39:03;9.40;99.90
7738;DHT22;29398;45.328;5.558;2024-02-23T00:40:07;9.40;99.90
7738;DHT22;29398;45.328;5.558;2024-02-23T00:41:10;9.40;99.90
7738;DHT22;29398;45.328;5.558;2024-02-23T00:42:11;9.40;99.90
7738;DHT22;29398;45.328;5.558;2024-02-23T00:43:13;9.30;99.90
7738;DHT22;29398;45.328;5.558;2024-02-23T00:44:14;9.30;99.90
7738;DHT22;29398;45.328;5.558;2024-02-23T00:45:15;9.30;99.90
7738;DHT22;29398;45.328;5.558;2024-02-23T00:46:18;9.30;99.90
7738;DHT22;29398;45.328;5.558;2024-02-23T00:47:19;9.30;99.90
7738;DHT22;29398;45.328;5.558;2024-02-23T00:48:21;9.40;99.90
7738;DHT22;29398;45.328;5.558;2024-02-23T00:49:22;9.40;99.90
7738;DHT22;29398;45.328;5.558;2024-02-23T00:50:23;9.40;99.90
7738;DHT22;29398;45.328;5.558;2024-02-23T00:51:27;9.40;99.90
7738;DHT22;29398;45.328;5.558;2024-02-23T00:52:28;9.40;99.90
7738;DHT22;29398;45.328;5.558;2024-02-23T00:53:31;9.30;99.90
7738;DHT22;29398;45.328;5.558;2024-02-23T00:54:32;9.30;99.90
7738;DHT22;29398;45.328;5.558;2024-02-23T00:55:36;9.30;99.90
7738;DHT22;29398;45.328;5.558;2024-02-23T00:56:37;9.30;99.90
7738;DHT22;29398;45.328;5.558;2024-02-23T00:57:39;9.20;99.90
7738;DHT22;29398;45.328;5.558;2024-02-23T00:58:40;9.10;99.90
7738;DHT22;29398;45.328;5.558;2024-02-23T00:59:41;9.10;99.90
7738;DHT22;29398;45.328;5.558;2024-02-23T01:00:44;9.10;99.90
7738;DHT22;29398;45.328;5.558;2024-02-23T01:01:45;9.10;99.90
7738;DHT22;29398;45.328;5.558;2024-02-23T01:02:47;9.10;99.90
7738;DHT22;29398;45.328;5.558;2024-02-23T01:03:48;9.00;99.90
7738;DHT22;29398;45.328;5.558;2024-02-23T01:04:50;9.00;99.90
7738;DHT22;29398;45.328;5.558;2024-02-23T01:05:51;9.00;99.90
7738;DHT22;29398;45.328;5.558;2024-02-23T01:06:53;9.00;99.90
7738;DHT22;29398;45.328;5.558;2024-02-23T01:07:54;9.10;99.90
7738;DHT22;29398;45.328;5.558;2024-02-23T01:08:56;9.10;99.90
7738;DHT22;29398;45.328;5.558;2024-02-23T01:09:57;9.10;99.90
7738;DHT22;29398;45.328;5.558;2024-02-23T01:11:01;9.10;99.90
7738;DHT22;29398;45.328;5.558;2024-02-23T01:12:03;9.10;99.90
7738;DHT22;29398;45.328;5.558;2024-02-23T01:13:05;9.10;99.90
7738;DHT22;29398;45.328;5.558;2024-02-23T01:14:06;9.10;99.90
7738;DHT22;29398;45.328;5.558;2024-02-23T01:15:09;9.10;99.90
7738;DHT22;29398;45.328;5.558;2024-02-23T01:16:10;9.10;99.90
7738;DHT22;29398;45.328;5.558;2024-02-23T01:17:12;9.20;99.90
7738;DHT22;29398;45.328;5.558;2024-02-23T01:18:13;7.20;99.90
7738;DHT22;29398;45.328;5.558;2024-02-23T01:19:15;9.20;99.90
7738;DHT22;29398;45.328;5.558;2024-02-23T01:20:16;9.20;99.90
7738;DHT22;29398;45.328;5.558;2024-02-23T01:21:19;9.20;99.90
7738;DHT22;29398;45.328;5.558;2024-02-23T01:22:20;9.20;99.90
7738;DHT22;29398;45.328;5.558;2024-02-23T01:23:22;9.20;99.90
7738;DHT22;29398;45.328;5.558;2024-02-23T01:24:23;9.20;99.90
7738;DHT22;29398;45.328;5.558;2024-02-23T01:25:26;9.20;99.90
7738;DHT22;29398;45.328;5.558;2024-02-23T01:26:29;9.20;99.90
7738;DHT22;29398;45.328;5.558;2024-02-23T01:27:31;9.20;99.90
7738;DHT22;29398;45.328;5.558;2024-02-23T01:28:32;9.10;99.90
7738;DHT22;29398;45.328;5.558;2024-02-23T01:29:34;9.10;99.90
7738;DHT22;29398;45.328;5.558;2024-02-23T01:30:35;9.20;99.90
7738;DHT22;29398;45.328;5.558;2024-02-23T01:31:37;9.10;99.90
7738;DHT22;29398;45.328;5.558;2024-02-23T01:32:39;9.10;99.90
7738;DHT22;29398;45.328;5.558;2024-02-23T01:33:41;9.10;99.90
7738;DHT22;29398;45.328;5.558;2024-02-23T01:34:42;9.10;99.90
7738;DHT22;29398;45.328;5.558;2024-02-23T01:35:44;9.10;99.90
7738;DHT22;29398;45.328;5.558;2024-02-23T01:36:45;9.00;99.90
7738;DHT22;29398;45.328;5.558;2024-02-23T01:37:48;9.00;99.90
7738;DHT22;29398;45.328;5.558;2024-02-23T01:38:49;9.00;99.90
7738;DHT22;29398;45.328;5.558;2024-02-23T01:39:51;9.00;99.90
7738;DHT22;29398;45.328;5.558;2024-02-23T01:40:52;9.00;99.90
7738;DHT22;29398;45.328;5.558;2024-02-23T01:41:56;9.00;99.90
7738;DHT22;29398;45.328;5.558;2024-02-23T01:43:01;9.00;99.90
7738;DHT22;29398;45.328;5.558;2024-02-23T01:44:03;8.90;99.90
7738;DHT22;29398;45.328;5.558;2024-02-23T01:45:06;9.00;99.90
7738;DHT22;29398;45.328;5.558;2024-02-23T01:46:08;8.90;99.90
7738;DHT22;29398;45.328;5.558;2024-02-23T01:47:10;9.00;99.90
7738;DHT22;29398;45.328;5.558;2024-02-23T01:48:12;9.00;99.90
7738;DHT22;29398;45.328;5.558;2024-02-23T01:49:13;8.90;99.90
7738;DHT22;29398;45.328;5.558;2024-02-23T01:50:16;8.90;99.90
7738;DHT22;29398;45.328;5.558;2024-02-23T01:51:17;8.90;99.90
7738;DHT22;29398;45.328;5.558;2024-02-23T01:52:19;8.90;99.90
7738;DHT22;29398;45.328;5.558;2024-02-23T01:53:21;8.90;99.90
7738;DHT22;29398;45.328;5.558;2024-02-23T01:54:25;8.90;99.90
7738;DHT22;29398;45.328;5.558;2024-02-23T01:55:27;8.90;99.90
7738;DHT22;29398;45.328;5.558;2024-02-23T01:56:29;8.90;99.90
7738;DHT22;29398;45.328;5.558;2024-02-23T01:57:32;8.90;99.90
7738;DHT22;29398;45.328;5.558;2024-02-23T01:58:35;8.80;99.90
7738;DHT22;29398;45.328;5.558;2024-02-23T01:59:38;8.80;99.90
7738;DHT22;29398;45.328;5.558;2024-02-23T02:00:39;8.80;99.90
7738;DHT22;29398;45.328;5.558;2024-02-23T02:01:43;8.70;99.90
7738;DHT22;29398;45.328;5.558;2024-02-23T02:02:44;8.70;99.90
7738;DHT22;29398;45.328;5.558;2024-02-23T02:03:46;8.70;99.90
7738;DHT22;29398;45.328;5.558;2024-02-23T02:04:48;8.70;99.90
7738;DHT22;29398;45.328;5.558;2024-02-23T02:05:49;8.60;99.90
7738;DHT22;29398;45.328;5.558;2024-02-23T02:06:51;8.60;99.90
7738;DHT22;29398;45.328;5.558;2024-02-23T02:07:53;8.50;99.90
7738;DHT22;29398;45.328;5.558;2024-02-23T02:08:59;8.50;99.90
7738;DHT22;29398;45.328;5.558;2024-02-23T02:10:01;8.50;99.90
7738;DHT22;29398;45.328;5.558;2024-02-23T02:11:04;8.50;99.90
7738;DHT22;29398;45.328;5.558;2024-02-23T02:12:06;8.40;99.90
7738;DHT22;29398;45.328;5.558;2024-02-23T02:13:09;8.30;99.90
7738;DHT22;29398;45.328;5.558;2024-02-23T02:14:11;8.30;99.90
7738;DHT22;29398;45.328;5.558;2024-02-23T02:15:12;8.30;99.90
7738;DHT22;29398;45.328;5.558;2024-02-23T02:16:13;8.30;99.90
7738;DHT22;29398;45.328;5.558;2024-02-23T02:17:15;8.20;99.90
7738;DHT22;29398;45.328;5.558;2024-02-23T02:18:16;8.20;99.90
7738;DHT22;29398;45.328;5.558;2024-02-23T02:19:18;8.20;99.90
7738;DHT22;29398;45.328;5.558;2024-02-23T02:20:24;8.20;99.90
7738;DHT22;29398;45.328;5.558;2024-02-23T02:21:26;8.20;99.90
7738;DHT22;29398;45.328;5.558;2024-02-23T02:22:32;8.20;99.90
7738;DHT22;29398;45.328;5.558;2024-02-23T02:23:34;8.20;99.90
7738;DHT22;29398;45.328;5.558;2024-02-23T02:24:35;8.10;99.90
7738;DHT22;29398;45.328;5.558;2024-02-23T02:25:37;8.10;99.90
7738;DHT22;29398;45.328;5.558;2024-02-23T02:26:38;8.10;99.90
7738;DHT22;29398;45.328;5.558;2024-02-23T02:27:40;8.10;99.90
7738;DHT22;29398;45.328;5.558;2024-02-23T02:28:43;8.10;99.90
7738;DHT22;29398;45.328;5.558;2024-02-23T02:29:46;8.10;99.90
7738;DHT22;29398;45.328;5.558;2024-02-23T02:30:48;8.10;99.90
7738;DHT22;29398;45.328;5.558;2024-02-23T02:31:49;8.10;99.90
7738;DHT22;29398;45.328;5.558;2024-02-23T02:32:51;8.10;99.90
7738;DHT22;29398;45.328;5.558;2024-02-23T02:33:53;8.10;99.90
7738;DHT22;29398;45.328;5.558;2024-02-23T02:34:55;8.00;99.90
7738;DHT22;29398;45.328;5.558;2024-02-23T02:35:56;8.00;99.90
7738;DHT22;29398;45.328;5.558;2024-02-23T02:36:58;8.00;99.90
7738;DHT22;29398;45.328;5.558;2024-02-23T02:37:59;8.00;99.90
7738;DHT22;29398;45.328;5.558;2024-02-23T02:39:00;7.90;99.90
7738;DHT22;29398;45.328;5.558;2024-02-23T02:40:03;7.80;99.90
7738;DHT22;29398;45.328;5.558;2024-02-23T02:41:04;7.80;99.90
7738;DHT22;29398;45.328;5.558;2024-02-23T02:42:07;7.80;99.90
7738;DHT22;29398;45.328;5.558;2024-02-23T02:43:10;7.80;99.90
7738;DHT22;29398;45.328;5.558;2024-02-23T02:44:13;7.80;99.90
7738;DHT22;29398;45.328;5.558;2024-02-23T02:45:14;7.80;99.90
7738;DHT22;29398;45.328;5.558;2024-02-23T02:46:18;7.80;99.90
7738;DHT22;29398;45.328;5.558;2024-02-23T02:47:19;7.80;99.90
7738;DHT22;29398;45.328;5.558;2024-02-23T02:48:20;7.80;99.90
7738;DHT22;29398;45.328;5.558;2024-02-23T02:49:22;7.80;99.90
7738;DHT22;29398;45.328;5.558;2024-02-23T02:50:23;7.80;99.90
7738;DHT22;29398;45.328;5.558;2024-02-23T02:51:26;7.80;99.90
7738;DHT22;29398;45.328;5.558;2024-02-23T02:52:27;7.80;99.90
7738;DHT22;29398;45.328;5.558;2024-02-23T02:53:29;7.80;99.90
7738;DHT22;29398;45.328;5.558;2024-02-23T02:54:31;7.80;99.90
7738;DHT22;29398;45.328;5.558;2024-02-23T02:55:32;7.80;99.90
7738;DHT22;29398;45.328;5.558;2024-02-23T02:56:34;7.80;99.90
7738;DHT22;29398;45.328;5.558;2024-02-23T02:57:35;7.70;99.90
7738;DHT22;29398;45.328;5.558;2024-02-23T02:58:36;7.70;99.90
7738;DHT22;29398;45.328;5.558;2024-02-23T02:59:40;7.70;99.90
7738;DHT22;29398;45.328;5.558;2024-02-23T03:00:41;7.60;99.90
7738;DHT22;29398;45.328;5.558;2024-02-23T03:01:43;7.60;99.90
7738;DHT22;29398;45.328;5.558;2024-02-23T03:02:44;7.60;99.90
7738;DHT22;29398;45.328;5.558;2024-02-23T03:03:46;7.60;99.90
7738;DHT22;29398;45.328;5.558;2024-02-23T03:04:47;7.60;99.90
7738;DHT22;29398;45.328;5.558;2024-02-23T03:05:48;7.60;99.90
7738;DHT22;29398;45.328;5.558;2024-02-23T03:06:50;7.60;99.90
7738;DHT22;29398;45.328;5.558;2024-02-23T03:07:51;7.50;99.90
7738;DHT22;29398;45.328;5.558;2024-02-23T03:08:53;7.50;99.90
7738;DHT22;29398;45.328;5.558;2024-02-23T03:09:54;7.40;99.90
7738;DHT22;29398;45.328;5.558;2024-02-23T03:10:56;7.40;99.90
7738;DHT22;29398;45.328;5.558;2024-02-23T03:11:57;7.40;99.90
7738;DHT22;29398;45.328;5.558;2024-02-23T03:12:59;7.40;99.90
7738;DHT22;29398;45.328;5.558;2024-02-23T03:14:00;7.30;99.90
7738;DHT22;29398;45.328;5.558;2024-02-23T03:15:05;7.30;99.90
7738;DHT22;29398;45.328;5.558;2024-02-23T03:16:14;7.30;99.90
7738;DHT22;29398;45.328;5.558;2024-02-23T03:17:16;7.30;99.90
7738;DHT22;29398;45.328;5.558;2024-02-23T03:18:17;7.30;99.90
7738;DHT22;29398;45.328;5.558;2024-02-23T03:19:19;7.30;99.90
7738;DHT22;29398;45.328;5.558;2024-02-23T03:20:24;7.30;99.90
7738;DHT22;29398;45.328;5.558;2024-02-23T03:21:26;7.20;99.90
7738;DHT22;29398;45.328;5.558;2024-02-23T03:22:27;7.00;99.90
7738;DHT22;29398;45.328;5.558;2024-02-23T03:24:30;6.90;99.90
7738;DHT22;29398;45.328;5.558;2024-02-23T03:25:32;6.90;99.90
7738;DHT22;29398;45.328;5.558;2024-02-23T03:26:34;6.00;99.90
7738;DHT22;29398;45.328;5.558;2024-02-23T03:27:36;6.90;99.90
7738;DHT22;29398;45.328;5.558;2024-02-23T03:28:37;6.80;99.90
7738;DHT22;29398;45.328;5.558;2024-02-23T03:29:40;6.90;99.90
7738;DHT22;29398;45.328;5.558;2024-02-23T03:30:42;6.80;99.90
7738;DHT22;29398;45.328;5.558;2024-02-23T03:31:44;6.80;99.90
7738;DHT22;29398;45.328;5.558;2024-02-23T03:32:45;6.80;99.90
7738;DHT22;29398;45.328;5.558;2024-02-23T03:33:47;6.80;99.90
7738;DHT22;29398;45.328;5.558;2024-02-23T03:34:48;6.80;99.90
7738;DHT22;29398;45.328;5.558;2024-02-23T03:35:50;6.80;99.90
7738;DHT22;29398;45.328;5.558;2024-02-23T03:36:51;6.80;99.90
7738;DHT22;29398;45.328;5.558;2024-02-23T03:37:53;6.70;99.90
7738;DHT22;29398;45.328;5.558;2024-02-23T03:38:55;6.70;99.90
7738;DHT22;29398;45.328;5.558;2024-02-23T03:39:57;6.70;99.90
7738;DHT22;29398;45.328;5.558;2024-02-23T03:40:58;6.70;99.90
7738;DHT22;29398;45.328;5.558;2024-02-23T03:42:00;6.70;99.90
7738;DHT22;29398;45.328;5.558;2024-02-23T03:43:01;6.60;99.90
7738;DHT22;29398;45.328;5.558;2024-02-23T03:44:04;6.60;99.90
7738;DHT22;29398;45.328;5.558;2024-02-23T03:45:05;6.60;99.90
7738;DHT22;29398;45.328;5.558;2024-02-23T03:46:08;6.60;99.90
7738;DHT22;29398;45.328;5.558;2024-02-23T03:47:09;6.60;99.90
7738;DHT22;29398;45.328;5.558;2024-02-23T03:48:11;6.60;99.90
7738;DHT22;29398;45.328;5.558;2024-02-23T03:49:13;6.60;99.90
7738;DHT22;29398;45.328;5.558;2024-02-23T03:50:14;6.50;99.90
7738;DHT22;29398;45.328;5.558;2024-02-23T03:51:16;6.40;99.90
7738;DHT22;29398;45.328;5.558;2024-02-23T03:52:17;6.40;99.90
7738;DHT22;29398;45.328;5.558;2024-02-23T03:53:19;6.40;99.90
7738;DHT22;29398;45.328;5.558;2024-02-23T03:54:20;6.40;99.90
7738;DHT22;29398;45.328;5.558;2024-02-23T03:55:22;6.30;99.90
7738;DHT22;29398;45.328;5.558;2024-02-23T03:56:23;6.30;99.90
7738;DHT22;29398;45.328;5.558;2024-02-23T03:57:24;6.30;99.90
7738;DHT22;29398;45.328;5.558;2024-02-23T03:58:26;6.30;99.90
7738;DHT22;29398;45.328;5.558;2024-02-23T03:59:27;6.30;99.90
7738;DHT22;29398;45.328;5.558;2024-02-23T04:00:29;6.30;99.90
7738;DHT22;29398;45.328;5.558;2024-02-23T04:01:32;6.20;99.90
7738;DHT22;29398;45.328;5.558;2024-02-23T04:02:34;6.10;99.90
7738;DHT22;29398;45.328;5.558;2024-02-23T04:03:35;6.10;99.90
7738;DHT22;29398;45.328;5.558;2024-02-23T04:04:37;6.00;99.90
7738;DHT22;29398;45.328;5.558;2024-02-23T04:05:38;6.00;99.90
7738;DHT22;29398;45.328;5.558;2024-02-23T04:06:40;6.00;99.90
7738;DHT22;29398;45.328;5.558;2024-02-23T04:07:41;6.00;99.90
7738;DHT22;29398;45.328;5.558;2024-02-23T04:08:43;6.00;99.90
7738;DHT22;29398;45.328;5.558;2024-02-23T04:09:44;6.00;99.90
7738;DHT22;29398;45.328;5.558;2024-02-23T04:10:52;6.00;99.90
7738;DHT22;29398;45.328;5.558;2024-02-23T04:11:53;6.00;99.90
7738;DHT22;29398;45.328;5.558;2024-02-23T04:12:55;6.00;99.90
7738;DHT22;29398;45.328;5.558;2024-02-23T04:13:56;6.00;99.90
7738;DHT22;29398;45.328;5.558;2024-02-23T04:14:58;6.00;99.90
7738;DHT22;29398;45.328;5.558;2024-02-23T04:16:00;6.00;99.90
7738;DHT22;29398;45.328;5.558;2024-02-23T04:17:04;5.90;99.90
7738;DHT22;29398;45.328;5.558;2024-02-23T04:18:06;5.90;99.90
7738;DHT22;29398;45.328;5.558;2024-02-23T04:19:08;5.80;99.90
7738;DHT22;29398;45.328;5.558;2024-02-23T04:20:09;5.80;99.90
7738;DHT22;29398;45.328;5.558;2024-02-23T04:21:12;5.80;99.90
7738;DHT22;29398;45.328;5.558;2024-02-23T04:22:13;5.70;99.90
7738;DHT22;29398;45.328;5.558;2024-02-23T04:23:15;5.70;99.90
7738;DHT22;29398;45.328;5.558;2024-02-23T04:24:16;5.60;99.90
7738;DHT22;29398;45.328;5.558;2024-02-23T04:25:18;5.60;99.90
7738;DHT22;29398;45.328;5.558;2024-02-23T04:26:19;5.60;99.90
7738;DHT22;29398;45.328;5.558;2024-02-23T04:27:20;5.60;99.90
7738;DHT22;29398;45.328;5.558;2024-02-23T04:28:22;5.70;99.90
7738;DHT22;29398;45.328;5.558;2024-02-23T04:29:23;5.60;99.90
7738;DHT22;29398;45.328;5.558;2024-02-23T04:30:25;5.70;99.90
7738;DHT22;29398;45.328;5.558;2024-02-23T04:31:26;5.70;99.90
7738;DHT22;29398;45.328;5.558;2024-02-23T04:32:28;5.70;99.90
7738;DHT22;29398;45.328;5.558;2024-02-23T04:33:31;5.70;99.90
7738;DHT22;29398;45.328;5.558;2024-02-23T04:34:32;5.60;99.90
7738;DHT22;29398;45.328;5.558;2024-02-23T04:35:34;5.60;99.90
7738;DHT22;29398;45.328;5.558;2024-02-23T04:36:35;5.60;99.90
7738;DHT22;29398;45.328;5.558;2024-02-23T04:37:37;5.50;99.90
7738;DHT22;29398;45.328;5.558;2024-02-23T04:38:38;5.60;99.90
7738;DHT22;29398;45.328;5.558;2024-02-23T04:39:40;5.50;99.90
7738;DHT22;29398;45.328;5.558;2024-02-23T04:40:42;5.50;99.90
7738;DHT22;29398;45.328;5.558;2024-02-23T04:41:43;5.60;99.90
7738;DHT22;29398;45.328;5.558;2024-02-23T04:42:45;5.60;99.90
7738;DHT22;29398;45.328;5.558;2024-02-23T04:43:48;5.60;99.90
7738;DHT22;29398;45.328;5.558;2024-02-23T04:44:50;5.60;99.90
7738;DHT22;29398;45.328;5.558;2024-02-23T04:45:53;5.50;99.90
7738;DHT22;29398;45.328;5.558;2024-02-23T04:46:54;5.50;99.90
7738;DHT22;29398;45.328;5.558;2024-02-23T04:47:58;5.50;99.90
7738;DHT22;29398;45.328;5.558;2024-02-23T04:48:59;5.50;99.90
7738;DHT22;29398;45.328;5.558;2024-02-23T04:50:00;5.50;99.90
7738;DHT22;29398;45.328;5.558;2024-02-23T04:51:04;5.50;99.90
7738;DHT22;29398;45.328;5.558;2024-02-23T04:52:05;5.50;99.90
7738;DHT22;29398;45.328;5.558;2024-02-23T04:53:08;5.50;99.90
7738;DHT22;29398;45.328;5.558;2024-02-23T04:54:09;5.50;99.90
7738;DHT22;29398;45.328;5.558;2024-02-23T04:55:11;5.50;99.90
7738;DHT22;29398;45.328;5.558;2024-02-23T04:56:12;5.50;99.90
7738;DHT22;29398;45.328;5.558;2024-02-23T04:57:13;5.40;99.90
7738;DHT22;29398;45.328;5.558;2024-02-23T04:58:15;5.40;99.90
7738;DHT22;29398;45.328;5.558;2024-02-23T04:59:16;5.40;99.90
7738;DHT22;29398;45.328;5.558;2024-02-23T05:00:19;5.40;99.90
7738;DHT22;29398;45.328;5.558;2024-02-23T05:01:20;5.30;99.90
7738;DHT22;29398;45.328;5.558;2024-02-23T05:02:22;5.30;99.90
7738;DHT22;29398;45.328;5.558;2024-02-23T05:03:24;5.30;99.90
7738;DHT22;29398;45.328;5.558;2024-02-23T05:04:27;5.30;99.90
7738;DHT22;29398;45.328;5.558;2024-02-23T05:05:29;5.30;99.90
7738;DHT22;29398;45.328;5.558;2024-02-23T05:06:31;5.30;99.90
7738;DHT22;29398;45.328;5.558;2024-02-23T05:07:32;5.30;99.90
7738;DHT22;29398;45.328;5.558;2024-02-23T05:08:34;5.30;99.90
7738;DHT22;29398;45.328;5.558;2024-02-23T05:09:35;5.30;99.90
7738;DHT22;29398;45.328;5.558;2024-02-23T05:10:37;5.30;99.90
7738;DHT22;29398;45.328;5.558;2024-02-23T05:11:39;5.30;99.90
7738;DHT22;29398;45.328;5.558;2024-02-23T05:12:41;5.30;99.90
7738;DHT22;29398;45.328;5.558;2024-02-23T05:13:42;5.30;99.90
7738;DHT22;29398;45.328;5.558;2024-02-23T05:14:44;5.30;99.90
7738;DHT22;29398;45.328;5.558;2024-02-23T05:15:45;5.30;99.90
7738;DHT22;29398;45.328;5.558;2024-02-23T05:16:46;5.20;99.90
7738;DHT22;29398;45.328;5.558;2024-02-23T05:17:48;5.20;99.90
7738;DHT22;29398;45.328;5.558;2024-02-23T05:18:50;5.20;99.90
7738;DHT22;29398;45.328;5.558;2024-02-23T05:19:52;5.20;99.90
7738;DHT22;29398;45.328;5.558;2024-02-23T05:20:53;5.10;99.90
7738;DHT22;29398;45.328;5.558;2024-02-23T05:21:55;5.10;99.90
7738;DHT22;29398;45.328;5.558;2024-02-23T05:22:56;5.10;99.90
7738;DHT22;29398;45.328;5.558;2024-02-23T05:23:58;5.10;99.90
7738;DHT22;29398;45.328;5.558;2024-02-23T05:25:00;5.00;99.90
7738;DHT22;29398;45.328;5.558;2024-02-23T05:26:02;5.00;99.90
7738;DHT22;29398;45.328;5.558;2024-02-23T05:27:03;5.00;99.90
7738;DHT22;29398;45.328;5.558;2024-02-23T05:28:05;5.00;99.90
7738;DHT22;29398;45.328;5.558;2024-02-23T05:29:06;5.00;99.90
7738;DHT22;29398;45.328;5.558;2024-02-23T05:30:09;5.00;99.90
7738;DHT22;29398;45.328;5.558;2024-02-23T05:31:11;5.00;99.90
7738;DHT22;29398;45.328;5.558;2024-02-23T05:32:13;5.00;99.90
7738;DHT22;29398;45.328;5.558;2024-02-23T05:33:14;5.10;99.90
7738;DHT22;29398;45.328;5.558;2024-02-23T05:34:16;5.10;99.90
7738;DHT22;29398;45.328;5.558;2024-02-23T05:35:19;5.10;99.90
7738;DHT22;29398;45.328;5.558;2024-02-23T05:36:20;5.10;99.90
7738;DHT22;29398;45.328;5.558;2024-02-23T05:37:22;5.10;99.90
7738;DHT22;29398;45.328;5.558;2024-02-23T05:38:23;5.10;99.90
7738;DHT22;29398;45.328;5.558;2024-02-23T05:39:25;5.00;99.90
7738;DHT22;29398;45.328;5.558;2024-02-23T05:40:26;5.00;99.90
7738;DHT22;29398;45.328;5.558;2024-02-23T05:41:28;5.00;99.90
7738;DHT22;29398;45.328;5.558;2024-02-23T05:42:29;5.00;99.90
7738;DHT22;29398;45.328;5.558;2024-02-23T05:43:31;5.00;99.90
7738;DHT22;29398;45.328;5.558;2024-02-23T05:44:32;5.00;99.90
7738;DHT22;29398;45.328;5.558;2024-02-23T05:45:34;5.00;99.90
7738;DHT22;29398;45.328;5.558;2024-02-23T05:46:36;5.00;99.90
7738;DHT22;29398;45.328;5.558;2024-02-23T05:47:38;5.00;99.90
7738;DHT22;29398;45.328;5.558;2024-02-23T05:48:39;5.00;99.90
7738;DHT22;29398;45.328;5.558;2024-02-23T05:49:43;5.00;99.90
7738;DHT22;29398;45.328;5.558;2024-02-23T05:50:44;5.00;99.90
7738;DHT22;29398;45.328;5.558;2024-02-23T05:51:46;5.00;99.90
7738;DHT22;29398;45.328;5.558;2024-02-23T05:52:47;5.00;99.90
7738;DHT22;29398;45.328;5.558;2024-02-23T05:53:49;5.00;99.90
7738;DHT22;29398;45.328;5.558;2024-02-23T05:54:50;5.00;99.90
7738;DHT22;29398;45.328;5.558;2024-02-23T05:55:52;5.00;99.90
7738;DHT22;29398;45.328;5.558;2024-02-23T05:56:54;5.00;99.90
7738;DHT22;29398;45.328;5.558;2024-02-23T05:57:55;4.90;99.90
7738;DHT22;29398;45.328;5.558;2024-02-23T05:58:57;5.00;99.90
7738;DHT22;29398;45.328;5.558;2024-02-23T05:59:58;4.90;99.90
7738;DHT22;29398;45.328;5.558;2024-02-23T06:01:00;4.90;99.90
7738;DHT22;29398;45.328;5.558;2024-02-23T06:02:02;4.80;99.90
7738;DHT22;29398;45.328;5.558;2024-02-23T06:03:05;4.80;99.90
7738;DHT22;29398;45.328;5.558;2024-02-23T06:04:06;4.80;99.90
7738;DHT22;29398;45.328;5.558;2024-02-23T06:05:09;4.70;99.90
7738;DHT22;29398;45.328;5.558;2024-02-23T06:06:11;4.70;99.90
7738;DHT22;29398;45.328;5.558;2024-02-23T06:07:13;4.70;99.90
7738;DHT22;29398;45.328;5.558;2024-02-23T06:08:16;4.70;99.90
7738;DHT22;29398;45.328;5.558;2024-02-23T06:09:18;4.80;99.90
7738;DHT22;29398;45.328;5.558;2024-02-23T06:10:19;4.70;99.90
7738;DHT22;29398;45.328;5.558;2024-02-23T06:11:21;4.80;99.90
7738;DHT22;29398;45.328;5.558;2024-02-23T06:12:22;4.80;99.90
7738;DHT22;29398;45.328;5.558;2024-02-23T06:13:24;4.80;99.90
7738;DHT22;29398;45.328;5.558;2024-02-23T06:14:26;4.80;99.90
7738;DHT22;29398;45.328;5.558;2024-02-23T06:15:27;4.80;99.90
7738;DHT22;29398;45.328;5.558;2024-02-23T06:16:29;4.80;99.90
7738;DHT22;29398;45.328;5.558;2024-02-23T06:17:30;4.80;99.90
7738;DHT22;29398;45.328;5.558;2024-02-23T06:18:32;4.70;99.90
7738;DHT22;29398;45.328;5.558;2024-02-23T06:19:33;4.70;99.90
7738;DHT22;29398;45.328;5.558;2024-02-23T06:20:36;4.70;99.90
7738;DHT22;29398;45.328;5.558;2024-02-23T06:21:37;4.70;99.90
7738;DHT22;29398;45.328;5.558;2024-02-23T06:22:39;4.70;99.90
7738;DHT22;29398;45.328;5.558;2024-02-23T06:23:40;4.70;99.90
7738;DHT22;29398;45.328;5.558;2024-02-23T06:24:43;4.70;99.90
7738;DHT22;29398;45.328;5.558;2024-02-23T06:25:44;4.60;99.90
7738;DHT22;29398;45.328;5.558;2024-02-23T06:26:46;4.70;99.90
7738;DHT22;29398;45.328;5.558;2024-02-23T06:27:49;4.60;99.90
7738;DHT22;29398;45.328;5.558;2024-02-23T06:28:51;4.60;99.90
7738;DHT22;29398;45.328;5.558;2024-02-23T06:29:52;4.60;99.90
7738;DHT22;29398;45.328;5.558;2024-02-23T06:30:54;4.70;99.90
7738;DHT22;29398;45.328;5.558;2024-02-23T06:31:55;4.70;99.90
7738;DHT22;29398;45.328;5.558;2024-02-23T06:32:57;4.70;99.90
7738;DHT22;29398;45.328;5.558;2024-02-23T06:33:58;4.70;99.90
7738;DHT22;29398;45.328;5.558;2024-02-23T06:35:01;4.70;99.90
7738;DHT22;29398;45.328;5.558;2024-02-23T06:36:05;4.70;99.90
7738;DHT22;29398;45.328;5.558;2024-02-23T06:37:08;4.70;99.90
7738;DHT22;29398;45.328;5.558;2024-02-23T06:38:09;4.70;99.90
7738;DHT22;29398;45.328;5.558;2024-02-23T06:39:11;4.70;99.90
7738;DHT22;29398;45.328;5.558;2024-02-23T06:40:12;4.70;99.90
7738;DHT22;29398;45.328;5.558;2024-02-23T06:41:15;4.70;99.90
7738;DHT22;29398;45.328;5.558;2024-02-23T06:42:16;4.70;99.90
7738;DHT22;29398;45.328;5.558;2024-02-23T06:43:18;4.60;99.90
7738;DHT22;29398;45.328;5.558;2024-02-23T06:44:19;4.60;99.90
7738;DHT22;29398;45.328;5.558;2024-02-23T06:45:23;4.60;99.90